Deo Volente — PHFJ — position and weather

sailwx.info

Track history (hours):
 
Tides and Currents Weather Stations Pressure Air Temp Water Temp Dewpoint Dewpoint Depression Visibility Wind Speed Wind Dir Waves Ship Positions

Deo Volente

Last reported at 2016-May-25 20:33 UTC. Time now 2016-May-31 02:08 UTC.
Position N 39°00' W 009°55'.

Length 105 m; draft 5.2 m.

Type: Cargo ship. MMSI: 246518000.

Date/timePositionNaut miles runAvg speedWind from/ knotsBaromVisibWave heightAir tempDewpointWater temp
2016-May-25 20:33N 39°00' W 009°55'1515.0
2016-May-25 19:33N 38°46' W 009°51'1615.4
2016-May-25 18:33N 38°31' W 009°46'1715.5
2016-May-25 17:29N 38°15' W 009°42'1415.4
2016-May-25 16:33N 38°00' W 009°38'1615.4
2016-May-25 15:30N 37°45' W 009°34'8513.5
2016-May-25 09:13N 36°37' W 008°30'14515.0
2016-May-24 23:33N 35°58' W 005°37'1211.9
2016-May-24 22:33N 36°04' W 005°24'5 5.0
2016-May-24 21:33N 36°09' W 005°22'0 0.0
2016-May-24 20:34N 36°09' W 005°22'0 0.0
2016-May-24 19:34N 36°09' W 005°22'3 2.8
2016-May-24 18:33N 36°06' W 005°22'3 3.0
2016-May-24 17:33N 36°06' W 005°18'16816.0
2016-May-24 07:04N 36°38' W 001°54'6016.9
2016-May-24 03:32N 37°18' W 000°58'1816.6
2016-May-24 02:27N 37°29' W 000°41'1516.7
2016-May-24 01:33N 37°40' W 000°28'1717.0
2016-May-24 00:33N 37°52' W 000°13'1716.9
2016-May-23 23:33N 38°05' E 000°02'10116.9
2016-May-23 17:33N 39°15' E 001°35'1616.4
2016-May-23 16:33N 39°25' E 001°52'1616.2
2016-May-23 15:33N 39°34' E 002°09'1716.5
2016-May-23 14:33N 39°44' E 002°27'1616.2
2016-May-23 13:33N 39°52' E 002°44'2210.3
2016-May-23 11:28N 39°51' E 003°12'3 1.4
2016-May-23 09:24N 39°50' E 003°09'0 0.0
2016-May-23 08:33N 39°50' E 003°09'0 0.0
2016-May-23 07:32N 39°50' E 003°09'0 0.0
2016-May-23 06:33N 39°50' E 003°09'0 0.0
2016-May-23 05:28N 39°50' E 003°09'0 0.0
2016-May-23 04:15N 39°50' E 003°09'0 0.0
2016-May-23 03:26N 39°50' E 003°09'0 0.0
2016-May-23 02:32N 39°50' E 003°09'0 0.0
2016-May-23 01:29N 39°50' E 003°09'0 0.0
2016-May-23 00:33N 39°50' E 003°09'0 0.0
2016-May-22 23:28N 39°50' E 003°09'0 0.0
2016-May-22 22:33N 39°50' E 003°09'0 0.0
2016-May-22 21:33N 39°50' E 003°09'0 0.0
2016-May-22 20:32N 39°50' E 003°09'0 0.0
2016-May-22 19:33N 39°50' E 003°09'0 0.0
2016-May-22 18:31N 39°50' E 003°09'0 0.0
2016-May-22 17:32N 39°50' E 003°09'9 8.6
2016-May-22 16:33N 39°55' E 003°18'12114.3
2016-May-22 08:05N 41°22' E 005°07'814.5
2016-May-22 07:34N 41°28' E 005°14'1414.2
2016-May-22 06:33N 41°38' E 005°27'1413.7
2016-May-22 05:33N 41°48' E 005°40'4413.5
2016-May-22 02:17N 42°20' E 006°21'4614.4
2016-May-21 23:05N 42°54' E 007°03'2113.8
2016-May-21 21:33N 43°10' E 007°23'1513.9
2016-May-21 20:31N 43°20' E 007°37'1414.2
2016-May-21 19:33N 43°30' E 007°50'1414.4
2016-May-21 18:33N 43°40' E 008°04'1414.2
2016-May-21 17:33N 43°50' E 008°18'1414.4
2016-May-21 16:33N 44°00' E 008°31'1414.3
2016-May-21 15:33N 44°11' E 008°45'1413.7
2016-May-21 14:33N 44°21' E 008°57'4 4.1
2016-May-21 13:33N 44°24' E 008°53'0 0.0
2016-May-21 12:33N 44°24' E 008°53'0 0.0
2016-May-21 11:33N 44°24' E 008°53'0 0.0
2016-May-21 10:33N 44°24' E 008°53'0 0.0
2016-May-21 09:34N 44°24' E 008°53'0 0.0
2016-May-21 08:33N 44°24' E 008°53'0 0.0
2016-May-21 07:33N 44°24' E 008°53'0 0.0
2016-May-21 06:33N 44°24' E 008°53'0 0.0
2016-May-21 05:33N 44°24' E 008°53'0 0.0
2016-May-21 04:33N 44°24' E 008°53'0 0.0
2016-May-21 03:33N 44°24' E 008°53'0 0.0
2016-May-21 02:33N 44°24' E 008°53'0 0.0
2016-May-21 01:33N 44°24' E 008°53'0 0.0
2016-May-21 00:33N 44°24' E 008°53'0 0.0
2016-May-20 23:33N 44°24' E 008°53'0 0.0
2016-May-20 22:33N 44°24' E 008°53'0 0.0
2016-May-20 21:33N 44°24' E 008°53'0 0.0
2016-May-20 20:33N 44°24' E 008°53'0 0.0
2016-May-20 19:33N 44°24' E 008°53'0 0.0
2016-May-20 18:33N 44°24' E 008°53'4 3.8
2016-May-20 17:33N 44°22' E 008°58'1514.6
2016-May-20 16:33N 44°09' E 009°05'1717.4
2016-May-20 15:33N 43°52' E 009°13'1717.1
2016-May-20 14:33N 43°36' E 009°22'1716.6
2016-May-20 13:33N 43°21' E 009°29'1616.0
2016-May-20 12:33N 43°05' E 009°36'1715.7
2016-May-20 11:27N 42°49' E 009°44'28815.9
2016-May-19 17:23N 38°17' E 011°48'1417.0
2016-May-19 16:33N 38°04' E 011°54'1716.5
2016-May-19 15:33N 37°49' E 012°04'11316.1
2016-May-19 08:32N 36°35' E 013°50'1616.7
2016-May-19 07:33N 36°23' E 014°05'1616.4
2016-May-19 06:33N 36°12' E 014°20'1616.5
2016-May-19 05:33N 36°02' E 014°35'1110.7
2016-May-19 04:33N 35°55' E 014°45'0 0.0
2016-May-19 03:33N 35°55' E 014°45'0 0.0
2016-May-19 02:33N 35°55' E 014°45'0 0.0
2016-May-19 01:33N 35°55' E 014°45'0 0.1
2016-May-19 00:33N 35°55' E 014°45'0 0.0
2016-May-18 23:34N 35°55' E 014°45'0 0.0
2016-May-18 22:33N 35°55' E 014°45'8 7.5
2016-May-18 21:33N 35°55' E 014°36'5 4.5
2016-May-18 20:33N 35°54' E 014°31'0 0.0
2016-May-18 19:33N 35°54' E 014°31'0 0.0
2016-May-18 18:33N 35°54' E 014°31'0 0.0
2016-May-18 17:33N 35°54' E 014°31'5 5.0
2016-May-18 16:33N 35°57' E 014°35'1616.4
2016-May-18 15:33N 36°10' E 014°48'1716.7
2016-May-18 14:31N 36°24' E 015°01'1616.7
2016-May-18 13:33N 36°36' E 015°13'7316.9
2016-May-18 09:13N 37°34' E 016°10'  
Track history (hours):
 
Tides and Currents Weather Stations Pressure Air Temp Water Temp Dewpoint Dewpoint Depression Visibility Wind Speed Wind Dir Waves Ship Positions

Deo Volente

Last reported at 2016-May-25 20:33 UTC. Time now 2016-May-31 02:08 UTC.
Position N 39°00' W 009°55'.

Length 105 m; draft 5.2 m.

Type: Cargo ship. MMSI: 246518000.

Date/timePositionNaut miles runAvg speedWind from/ knotsBaromVisibWave heightAir tempDewpointWater temp
2016-May-25 20:33N 39°00' W 009°55'1515.0
2016-May-25 19:33N 38°46' W 009°51'1615.4
2016-May-25 18:33N 38°31' W 009°46'1715.5
2016-May-25 17:29N 38°15' W 009°42'1415.4
2016-May-25 16:33N 38°00' W 009°38'1615.4
2016-May-25 15:30N 37°45' W 009°34'8513.5
2016-May-25 09:13N 36°37' W 008°30'14515.0
2016-May-24 23:33N 35°58' W 005°37'1211.9
2016-May-24 22:33N 36°04' W 005°24'5 5.0
2016-May-24 21:33N 36°09' W 005°22'0 0.0
2016-May-24 20:34N 36°09' W 005°22'0 0.0
2016-May-24 19:34N 36°09' W 005°22'3 2.8
2016-May-24 18:33N 36°06' W 005°22'3 3.0
2016-May-24 17:33N 36°06' W 005°18'16816.0
2016-May-24 07:04N 36°38' W 001°54'6016.9
2016-May-24 03:32N 37°18' W 000°58'1816.6
2016-May-24 02:27N 37°29' W 000°41'1516.7
2016-May-24 01:33N 37°40' W 000°28'1717.0
2016-May-24 00:33N 37°52' W 000°13'1716.9
2016-May-23 23:33N 38°05' E 000°02'10116.9
2016-May-23 17:33N 39°15' E 001°35'1616.4
2016-May-23 16:33N 39°25' E 001°52'1616.2
2016-May-23 15:33N 39°34' E 002°09'1716.5
2016-May-23 14:33N 39°44' E 002°27'1616.2
2016-May-23 13:33N 39°52' E 002°44'2210.3
2016-May-23 11:28N 39°51' E 003°12'3 1.4
2016-May-23 09:24N 39°50' E 003°09'0 0.0
2016-May-23 08:33N 39°50' E 003°09'0 0.0
2016-May-23 07:32N 39°50' E 003°09'0 0.0
2016-May-23 06:33N 39°50' E 003°09'0 0.0
2016-May-23 05:28N 39°50' E 003°09'0 0.0
2016-May-23 04:15N 39°50' E 003°09'0 0.0
2016-May-23 03:26N 39°50' E 003°09'0 0.0
2016-May-23 02:32N 39°50' E 003°09'0 0.0
2016-May-23 01:29N 39°50' E 003°09'0 0.0
2016-May-23 00:33N 39°50' E 003°09'0 0.0
2016-May-22 23:28N 39°50' E 003°09'0 0.0
2016-May-22 22:33N 39°50' E 003°09'0 0.0
2016-May-22 21:33N 39°50' E 003°09'0 0.0
2016-May-22 20:32N 39°50' E 003°09'0 0.0
2016-May-22 19:33N 39°50' E 003°09'0 0.0
2016-May-22 18:31N 39°50' E 003°09'0 0.0
2016-May-22 17:32N 39°50' E 003°09'9 8.6
2016-May-22 16:33N 39°55' E 003°18'12114.3
2016-May-22 08:05N 41°22' E 005°07'814.5
2016-May-22 07:34N 41°28' E 005°14'1414.2
2016-May-22 06:33N 41°38' E 005°27'1413.7
2016-May-22 05:33N 41°48' E 005°40'4413.5
2016-May-22 02:17N 42°20' E 006°21'4614.4
2016-May-21 23:05N 42°54' E 007°03'2113.8
2016-May-21 21:33N 43°10' E 007°23'1513.9
2016-May-21 20:31N 43°20' E 007°37'1414.2
2016-May-21 19:33N 43°30' E 007°50'1414.4
2016-May-21 18:33N 43°40' E 008°04'1414.2
2016-May-21 17:33N 43°50' E 008°18'1414.4
2016-May-21 16:33N 44°00' E 008°31'1414.3
2016-May-21 15:33N 44°11' E 008°45'1413.7
2016-May-21 14:33N 44°21' E 008°57'4 4.1
2016-May-21 13:33N 44°24' E 008°53'0 0.0
2016-May-21 12:33N 44°24' E 008°53'0 0.0
2016-May-21 11:33N 44°24' E 008°53'0 0.0
2016-May-21 10:33N 44°24' E 008°53'0 0.0
2016-May-21 09:34N 44°24' E 008°53'0 0.0
2016-May-21 08:33N 44°24' E 008°53'0 0.0
2016-May-21 07:33N 44°24' E 008°53'0 0.0
2016-May-21 06:33N 44°24' E 008°53'0 0.0
2016-May-21 05:33N 44°24' E 008°53'0 0.0
2016-May-21 04:33N 44°24' E 008°53'0 0.0
2016-May-21 03:33N 44°24' E 008°53'0 0.0
2016-May-21 02:33N 44°24' E 008°53'0 0.0
2016-May-21 01:33N 44°24' E 008°53'0 0.0
2016-May-21 00:33N 44°24' E 008°53'0 0.0
2016-May-20 23:33N 44°24' E 008°53'0 0.0
2016-May-20 22:33N 44°24' E 008°53'0 0.0
2016-May-20 21:33N 44°24' E 008°53'0 0.0
2016-May-20 20:33N 44°24' E 008°53'0 0.0
2016-May-20 19:33N 44°24' E 008°53'0 0.0
2016-May-20 18:33N 44°24' E 008°53'4 3.8
2016-May-20 17:33N 44°22' E 008°58'1514.6
2016-May-20 16:33N 44°09' E 009°05'1717.4
2016-May-20 15:33N 43°52' E 009°13'1717.1
2016-May-20 14:33N 43°36' E 009°22'1716.6
2016-May-20 13:33N 43°21' E 009°29'1616.0
2016-May-20 12:33N 43°05' E 009°36'1715.7
2016-May-20 11:27N 42°49' E 009°44'28815.9
2016-May-19 17:23N 38°17' E 011°48'1417.0
2016-May-19 16:33N 38°04' E 011°54'1716.5
2016-May-19 15:33N 37°49' E 012°04'11316.1
2016-May-19 08:32N 36°35' E 013°50'1616.7
2016-May-19 07:33N 36°23' E 014°05'1616.4
2016-May-19 06:33N 36°12' E 014°20'1616.5
2016-May-19 05:33N 36°02' E 014°35'1110.7
2016-May-19 04:33N 35°55' E 014°45'0 0.0
2016-May-19 03:33N 35°55' E 014°45'0 0.0
2016-May-19 02:33N 35°55' E 014°45'0 0.0
2016-May-19 01:33N 35°55' E 014°45'0 0.1
2016-May-19 00:33N 35°55' E 014°45'0 0.0
2016-May-18 23:34N 35°55' E 014°45'0 0.0
2016-May-18 22:33N 35°55' E 014°45'8 7.5
2016-May-18 21:33N 35°55' E 014°36'5 4.5
2016-May-18 20:33N 35°54' E 014°31'0 0.0
2016-May-18 19:33N 35°54' E 014°31'0 0.0
2016-May-18 18:33N 35°54' E 014°31'0 0.0
2016-May-18 17:33N 35°54' E 014°31'5 5.0
2016-May-18 16:33N 35°57' E 014°35'1616.4
2016-May-18 15:33N 36°10' E 014°48'1716.7
2016-May-18 14:31N 36°24' E 015°01'1616.7
2016-May-18 13:33N 36°36' E 015°13'7316.9
2016-May-18 09:13N 37°34' E 016°10'  

Dump ship's entire track history